createdAt,value
2023-02-13T00:01:26.904Z,99277.75
2023-02-13T00:03:55.285Z,99287.66
2023-02-13T00:06:24.021Z,99284.09
2023-02-13T00:08:52.313Z,99294.53
2023-02-13T00:11:21.575Z,99293.75
2023-02-13T00:13:49.880Z,99304.94
2023-02-13T00:16:18.605Z,99300.38
2023-02-13T00:18:46.988Z,99308.78
2023-02-13T00:21:16.283Z,99300.38
2023-02-13T00:23:44.702Z,99313.09
2023-02-13T00:26:16.129Z,99319.72
2023-02-13T00:28:45.391Z,99317.19
2023-02-13T00:31:19.008Z,99313.38
2023-02-13T00:33:47.764Z,99318.22
2023-02-13T00:36:21.918Z,99320.25
2023-02-13T00:38:51.096Z,99327.16
2023-02-13T00:41:19.612Z,99337.09
2023-02-13T00:43:49.178Z,99340.41
2023-02-13T00:46:18.507Z,99342.22
2023-02-13T00:48:47.480Z,99344.00
2023-02-13T00:51:16.006Z,99354.47
2023-02-13T00:53:44.453Z,99353.50
2023-02-13T00:56:12.808Z,99359.59
2023-02-13T00:58:41.143Z,99361.38
2023-02-13T01:01:09.442Z,99364.47
2023-02-13T01:03:37.883Z,99369.53
2023-02-13T01:06:06.761Z,99378.97
2023-02-13T01:08:35.091Z,99381.25
2023-02-13T01:11:03.442Z,99389.16
2023-02-13T01:13:31.787Z,99390.69
2023-02-13T01:16:00.472Z,99385.84
2023-02-13T01:18:29.097Z,99396.28
2023-02-13T01:21:03.441Z,99407.75
2023-02-13T01:23:37.188Z,99402.13
2023-02-13T01:26:07.797Z,99403.41
2023-02-13T01:28:36.766Z,99409.75
2023-02-13T01:31:05.294Z,99408.47
2023-02-13T01:33:33.681Z,99405.66
2023-02-13T01:36:07.721Z,99407.69
2023-02-13T01:38:36.205Z,99417.59
2023-02-13T01:41:04.747Z,99414.53
2023-02-13T01:44:05.625Z,99416.06
2023-02-13T01:46:41.772Z,99422.94
2023-02-13T01:49:12.847Z,99421.66
2023-02-13T01:51:42.689Z,99435.66
2023-02-13T01:54:18.789Z,99423.09
2023-02-13T01:56:52.794Z,99428.97
2023-02-13T01:59:26.680Z,99429.19
2023-02-13T02:01:57.255Z,99427.84
2023-02-13T02:04:32.261Z,99436.50
2023-02-13T02:07:09.753Z,99431.88
2023-02-13T02:09:41.626Z,99439.00
2023-02-13T02:12:31.680Z,99439.72
2023-02-13T02:15:03.131Z,99444.78
2023-02-13T02:17:31.669Z,99437.88
2023-02-13T02:20:12.054Z,99448.25
2023-02-13T02:22:43.321Z,99444.13
2023-02-13T02:25:20.380Z,99453.50
2023-02-13T02:28:15.904Z,99448.09
2023-02-13T02:31:22.108Z,99445.72
2023-02-13T02:34:11.589Z,99453.81
2023-02-13T02:37:08.444Z,99461.19
2023-02-13T02:40:07.368Z,99468.75
2023-02-13T02:42:38.334Z,99457.66
2023-02-13T02:45:24.955Z,99472.19
2023-02-13T02:48:46.170Z,99469.53
2023-02-13T02:51:48.407Z,99462.53
2023-02-13T02:54:38.109Z,99461.41
2023-02-13T02:57:16.016Z,99462.88
2023-02-13T03:00:03.670Z,99469.41
2023-02-13T03:02:52.653Z,99456.81
2023-02-13T03:05:46.105Z,99459.78
2023-02-13T03:08:15.488Z,99455.81
2023-02-13T03:11:04.321Z,99463.66
2023-02-13T03:13:50.421Z,99454.13
2023-02-13T03:16:41.036Z,99462.72
2023-02-13T03:19:41.808Z,99454.63
2023-02-13T03:22:31.508Z,99449.38
2023-02-13T03:25:14.548Z,99437.47
2023-02-13T03:28:03.864Z,99438.38
2023-02-13T03:30:58.001Z,99438.00
2023-02-13T03:33:57.797Z,99429.38
2023-02-13T03:37:05.117Z,99423.09
2023-02-13T03:40:00.652Z,99425.50
2023-02-13T03:42:37.454Z,99421.72
2023-02-13T03:45:48.241Z,99415.66
2023-02-13T03:48:49.497Z,99402.66
2023-02-13T03:51:30.169Z,99403.22
2023-02-13T03:54:03.577Z,99397.91
2023-02-13T03:56:53.835Z,99393.66
2023-02-13T03:59:28.656Z,99395.47
2023-02-13T04:02:14.877Z,99390.38
2023-02-13T04:05:17.378Z,99382.97
2023-02-13T04:07:45.739Z,99375.34
2023-02-13T04:10:17.557Z,99373.16
2023-02-13T04:13:22.961Z,99371.19
2023-02-13T04:16:12.479Z,99364.09
2023-02-13T04:18:41.982Z,99363.19
2023-02-13T04:21:10.497Z,99353.06
2023-02-13T04:23:38.853Z,99348.06
2023-02-13T04:26:14.431Z,99347.91
2023-02-13T04:28:42.817Z,99345.69
2023-02-13T04:31:11.376Z,99339.94
2023-02-13T04:33:39.730Z,99336.41
2023-02-13T04:36:08.389Z,99332.34
2023-02-13T04:38:36.678Z,99325.22
2023-02-13T04:41:05.005Z,99323.00
2023-02-13T04:43:33.292Z,99322.09
2023-02-13T04:46:01.616Z,99315.94
2023-02-13T04:48:29.932Z,99309.56
2023-02-13T04:50:58.396Z,99302.66
2023-02-13T04:53:27.043Z,99309.13
2023-02-13T04:55:55.348Z,99301.22
2023-02-13T04:58:23.652Z,99292.78
2023-02-13T05:00:51.932Z,99288.44
2023-02-13T05:03:20.267Z,99281.88
2023-02-13T05:05:50.605Z,99284.94
2023-02-13T05:08:19.227Z,99272.88
2023-02-13T05:10:47.542Z,99269.88
2023-02-13T05:13:17.590Z,99260.66
2023-02-13T05:15:45.944Z,99263.50
2023-02-13T05:18:14.268Z,99253.31
2023-02-13T05:20:42.986Z,99247.66
2023-02-13T05:23:25.421Z,99245.03
2023-02-13T05:25:53.835Z,99246.34
2023-02-13T05:28:40.516Z,99233.88
2023-02-13T05:31:09.062Z,99228.81
2023-02-13T05:33:37.439Z,99229.41
2023-02-13T05:36:06.093Z,99216.91
2023-02-13T05:38:34.425Z,99222.97
2023-02-13T05:41:03.301Z,99215.00
2023-02-13T05:43:31.914Z,99204.03
2023-02-13T05:46:11.455Z,99203.25
2023-02-13T05:48:39.810Z,99195.91
2023-02-13T05:51:08.602Z,99192.84
2023-02-13T05:53:37.206Z,99189.06
2023-02-13T05:56:07.202Z,99176.94
2023-02-13T05:58:36.122Z,99175.97
2023-02-13T06:01:04.722Z,99167.28
2023-02-13T06:03:34.167Z,99168.22
2023-02-13T06:06:02.608Z,99159.31
2023-02-13T06:08:31.028Z,99154.91
2023-02-13T06:10:59.716Z,99156.78
2023-02-13T06:13:28.263Z,99138.97
2023-02-13T06:15:56.852Z,99139.53
2023-02-13T06:18:25.298Z,99134.00
2023-02-13T06:20:53.681Z,99139.47
2023-02-13T06:23:21.970Z,99130.00
2023-02-13T06:25:50.274Z,99124.66
2023-02-13T06:28:18.733Z,99119.53
2023-02-13T06:30:47.431Z,99119.13
2023-02-13T06:33:16.182Z,99100.94
2023-02-13T06:35:44.489Z,99104.53
2023-02-13T06:38:13.211Z,99103.94
2023-02-13T06:40:42.085Z,99100.16
2023-02-13T06:43:10.554Z,99095.25
2023-02-13T06:45:39.206Z,99088.22
2023-02-13T06:48:07.759Z,99082.31
2023-02-13T06:50:36.185Z,99078.47
2023-02-13T06:53:04.701Z,99072.56
2023-02-13T06:55:32.999Z,99061.56
2023-02-13T06:58:01.316Z,99065.66
2023-02-13T07:00:29.735Z,99055.97
2023-02-13T07:03:03.892Z,99057.09
2023-02-13T07:05:32.975Z,99050.22
2023-02-13T07:08:01.286Z,99045.31
2023-02-13T07:10:29.723Z,99044.31
2023-02-13T07:13:05.647Z,99042.41
2023-02-13T07:15:35.913Z,99033.47
2023-02-13T07:18:04.507Z,99025.84
2023-02-13T07:20:33.148Z,99018.06
2023-02-13T07:23:07.608Z,99019.75
2023-02-13T07:25:36.359Z,99014.22
2023-02-13T07:28:07.004Z,99017.97
2023-02-13T07:30:36.459Z,99009.47
2023-02-13T07:33:06.712Z,99000.34
2023-02-13T07:35:36.852Z,98991.81
2023-02-13T07:38:06.051Z,98991.81
2023-02-13T07:40:34.784Z,98993.31
2023-02-13T07:43:03.161Z,98989.13
2023-02-13T07:45:32.258Z,98990.63
2023-02-13T07:48:03.403Z,98984.03
2023-02-13T07:50:32.005Z,98976.50
2023-02-13T07:53:04.187Z,98975.44
2023-02-13T07:55:33.611Z,98974.19
2023-02-13T07:58:02.773Z,98971.16
2023-02-13T08:00:31.169Z,98968.41
2023-02-13T08:03:03.977Z,98963.72
2023-02-13T08:05:34.840Z,98966.19
2023-02-13T08:08:03.129Z,98959.59
2023-02-13T08:10:49.628Z,98960.59
2023-02-13T08:13:18.751Z,98963.59
2023-02-13T08:15:48.203Z,98960.94
2023-02-13T08:18:18.840Z,98961.25
2023-02-13T08:20:48.005Z,98965.38
2023-02-13T08:23:16.388Z,98955.09
2023-02-13T08:25:44.904Z,98962.63
2023-02-13T08:28:13.461Z,98950.84
2023-02-13T08:30:41.811Z,98946.84
2023-02-13T08:33:10.133Z,98951.34
2023-02-13T08:35:38.431Z,98943.72
2023-02-13T08:40:53.324Z,98951.50
2023-02-13T08:43:21.620Z,98948.66
2023-02-13T08:45:49.945Z,98956.28
2023-02-13T08:48:18.260Z,98943.81
2023-02-13T08:50:46.541Z,98940.47
2023-02-13T08:53:14.873Z,98941.81
2023-02-13T08:55:43.149Z,98953.59
2023-02-13T08:58:11.684Z,98944.91
2023-02-13T09:00:39.969Z,98949.09
2023-02-13T09:03:10.089Z,98951.75
2023-02-13T09:05:38.745Z,98951.56
2023-02-13T09:08:07.890Z,98952.00
2023-02-13T09:10:36.354Z,98952.25
2023-02-13T09:13:04.750Z,98949.63
2023-02-13T09:15:33.922Z,98953.47
2023-02-13T09:18:02.501Z,98957.31
2023-02-13T09:20:30.813Z,98958.31
2023-02-13T09:22:59.275Z,98957.38
2023-02-13T09:25:28.041Z,98964.06
2023-02-13T09:27:56.399Z,98965.03
2023-02-13T09:30:24.888Z,98966.03
2023-02-13T09:32:54.766Z,98959.97
2023-02-13T09:35:24.570Z,98965.31
2023-02-13T09:37:52.977Z,98973.50
2023-02-13T09:40:41.937Z,98978.09
2023-02-13T09:43:33.439Z,98973.94
2023-02-13T09:46:09.548Z,98979.84
2023-02-13T09:48:40.550Z,98974.41
2023-02-13T09:51:08.886Z,98981.25
2023-02-13T09:53:39.276Z,98980.16
2023-02-13T09:56:15.662Z,98986.22
2023-02-13T09:58:52.926Z,98985.09
2023-02-13T10:01:38.977Z,98981.72
2023-02-13T10:04:26.266Z,98987.59
2023-02-13T10:07:17.896Z,98994.25
2023-02-13T10:10:03.174Z,98995.25
2023-02-13T10:12:46.549Z,99002.63
2023-02-13T10:15:33.254Z,99004.34
2023-02-13T10:18:07.054Z,99000.22
2023-02-13T10:20:55.188Z,99008.19
2023-02-13T10:23:36.566Z,99006.16
2023-02-13T10:26:19.325Z,99004.06
2023-02-13T10:29:24.472Z,99006.16
2023-02-13T10:31:56.819Z,99004.66
2023-02-13T10:34:32.874Z,99010.34
2023-02-13T10:37:02.316Z,99013.94
2023-02-13T10:39:32.269Z,99019.63
2023-02-13T10:42:07.500Z,99019.66
2023-02-13T10:45:08.640Z,99028.16
2023-02-13T10:48:05.841Z,99017.38
2023-02-13T10:50:46.242Z,99036.44
2023-02-13T10:53:34.209Z,99041.34
2023-02-13T10:56:33.365Z,99038.31
2023-02-13T10:59:27.130Z,99037.94
2023-02-13T11:02:01.063Z,99041.50
2023-02-13T11:04:30.906Z,99042.78
2023-02-13T11:07:12.786Z,99039.75
2023-02-13T11:09:45.020Z,99043.09
2023-02-13T11:12:31.919Z,99047.03
2023-02-13T11:15:03.217Z,99044.00
2023-02-13T11:17:38.492Z,99057.34
2023-02-13T11:20:30.344Z,99054.25
2023-02-13T11:23:36.249Z,99048.19
2023-02-13T11:26:25.534Z,99057.72
2023-02-13T11:29:01.989Z,99061.06
2023-02-13T11:31:38.789Z,99062.88
2023-02-13T11:34:39.909Z,99059.78
2023-02-13T11:37:14.218Z,99059.94
2023-02-13T11:39:43.540Z,99064.97
2023-02-13T11:42:15.736Z,99073.56
2023-02-13T11:44:50.033Z,99073.16
2023-02-13T11:47:31.035Z,99076.91
2023-02-13T11:49:59.436Z,99084.19
2023-02-13T11:52:34.042Z,99083.59
2023-02-13T11:55:26.053Z,99082.19
2023-02-13T11:58:01.025Z,99092.88
2023-02-13T12:00:49.779Z,99098.66
2023-02-13T12:03:29.008Z,99105.19
2023-02-13T12:06:15.922Z,99112.06
2023-02-13T12:08:48.422Z,99106.31
2023-02-13T12:11:36.001Z,99113.41
2023-02-13T12:14:04.515Z,99118.97
2023-02-13T12:16:43.585Z,99126.03
2023-02-13T12:19:21.498Z,99124.63
2023-02-13T12:22:16.034Z,99123.22
2023-02-13T12:25:05.810Z,99130.28
2023-02-13T12:27:43.986Z,99131.91
2023-02-13T12:30:39.794Z,99139.16
2023-02-13T12:33:39.712Z,99144.91
2023-02-13T12:36:23.663Z,99150.88
2023-02-13T12:39:03.708Z,99151.75
2023-02-13T12:42:10.597Z,99151.88
2023-02-13T12:45:00.146Z,99153.25
2023-02-13T12:47:28.429Z,99158.47
2023-02-13T12:50:08.566Z,99163.47
2023-02-13T12:52:51.465Z,99168.44
2023-02-13T12:55:31.686Z,99164.97
2023-02-13T12:58:17.957Z,99168.38
2023-02-13T13:01:03.330Z,99170.53
2023-02-13T13:03:55.972Z,99169.88
2023-02-13T13:06:30.232Z,99182.00
2023-02-13T13:09:07.335Z,99178.75
2023-02-13T13:12:08.732Z,99177.53
2023-02-13T13:14:57.246Z,99187.59
2023-02-13T13:17:33.967Z,99197.88
2023-02-13T13:20:11.256Z,99203.28
2023-02-13T13:22:47.150Z,99208.69
2023-02-13T13:25:40.268Z,99212.56
2023-02-13T13:28:34.428Z,99212.34
2023-02-13T13:31:05.184Z,99209.09
2023-02-13T13:33:37.005Z,99212.97
2023-02-13T13:36:10.296Z,99212.00
2023-02-13T13:38:41.621Z,99220.19
2023-02-13T13:41:16.098Z,99222.03
2023-02-13T13:43:53.559Z,99219.50
2023-02-13T13:47:08.079Z,99214.72
2023-02-13T13:49:57.661Z,99220.41
2023-02-13T13:52:40.201Z,99217.69
2023-02-13T13:55:46.451Z,99228.00
2023-02-13T13:58:33.967Z,99225.03
2023-02-13T14:01:30.160Z,99225.66
2023-02-13T14:04:04.608Z,99225.19
2023-02-13T14:06:47.755Z,99229.56
2023-02-13T14:09:40.215Z,99226.31
2023-02-13T14:12:27.170Z,99226.09
2023-02-13T14:14:56.577Z,99229.44
2023-02-13T14:17:46.664Z,99237.63
2023-02-13T14:20:24.523Z,99236.66
2023-02-13T14:22:52.956Z,99237.66
2023-02-13T14:25:29.446Z,99242.06
2023-02-13T14:28:00.812Z,99236.00
2023-02-13T14:30:35.205Z,99241.88
2023-02-13T14:33:08.493Z,99239.38
2023-02-13T14:35:39.229Z,99244.75
2023-02-13T14:38:22.858Z,99240.44
2023-02-13T14:40:53.487Z,99242.47
2023-02-13T14:43:34.037Z,99240.44
2023-02-13T14:46:29.439Z,99239.44
2023-02-13T14:49:23.045Z,99234.09
2023-02-13T14:52:04.870Z,99240.03
2023-02-13T14:54:52.057Z,99237.50
2023-02-13T14:57:29.852Z,99237.03
2023-02-13T15:00:02.434Z,99239.88
2023-02-13T15:02:36.837Z,99238.66
2023-02-13T15:05:09.453Z,99236.91
2023-02-13T15:07:46.616Z,99230.81
2023-02-13T15:10:31.190Z,99231.34
2023-02-13T15:13:02.007Z,99232.63
2023-02-13T15:15:35.343Z,99234.44
2023-02-13T15:18:23.099Z,99235.50
2023-02-13T15:20:51.541Z,99234.47
2023-02-13T15:23:27.615Z,99231.16
2023-02-13T15:26:05.729Z,99232.97
2023-02-13T15:28:35.847Z,99237.84
2023-02-13T15:31:22.203Z,99230.97
2023-02-13T15:33:52.367Z,99229.22
2023-02-13T15:36:23.785Z,99234.59
2023-02-13T15:39:00.998Z,99237.94
2023-02-13T15:41:42.075Z,99229.81
2023-02-13T15:44:23.666Z,99233.66
2023-02-13T15:46:54.006Z,99229.63
2023-02-13T15:49:25.968Z,99231.63
2023-02-13T15:52:08.156Z,99229.88
2023-02-13T15:54:37.016Z,99226.81
2023-02-13T15:57:08.316Z,99224.31
2023-02-13T15:59:39.568Z,99222.53
2023-02-13T16:02:16.573Z,99221.78
2023-02-13T16:04:45.919Z,99220.03
2023-02-13T16:07:15.515Z,99226.41
2023-02-13T16:09:43.950Z,99223.34
2023-02-13T16:12:20.962Z,99225.41
2023-02-13T16:14:56.137Z,99221.59
2023-02-13T16:17:29.848Z,99225.69
2023-02-13T16:20:06.373Z,99221.13
2023-02-13T16:22:40.531Z,99217.31
2023-02-13T16:25:17.851Z,99219.84
2023-02-13T16:27:49.462Z,99218.31
2023-02-13T16:30:41.482Z,99222.66
2023-02-13T16:33:22.307Z,99222.41
2023-02-13T16:36:02.232Z,99222.16
2023-02-13T16:38:43.498Z,99219.13
2023-02-13T16:41:20.928Z,99220.91
2023-02-13T16:44:02.712Z,99213.53
2023-02-13T16:46:39.265Z,99217.63
2023-02-13T16:49:18.263Z,99219.41
2023-02-13T16:51:49.440Z,99219.94
2023-02-13T16:54:23.809Z,99227.34
2023-02-13T16:56:57.272Z,99225.06
2023-02-13T16:59:49.377Z,99226.59
2023-02-13T17:02:23.774Z,99237.06
2023-02-13T17:05:10.291Z,99236.53
2023-02-13T17:07:42.950Z,99228.13
2023-02-13T17:10:34.668Z,99234.50
2023-02-13T17:13:18.533Z,99228.13
2023-02-13T17:15:49.353Z,99236.28
2023-02-13T17:18:17.626Z,99222.78
2023-02-13T17:20:46.949Z,99226.09
2023-02-13T17:23:23.348Z,99238.09
2023-02-13T17:25:53.507Z,99231.44
2023-02-13T17:28:25.163Z,99229.94
2023-02-13T17:30:57.493Z,99228.91
2023-02-13T17:33:29.740Z,99232.25
2023-02-13T17:35:58.383Z,99227.16
2023-02-13T17:38:26.882Z,99229.97
2023-02-13T17:40:55.789Z,99226.16
2023-02-13T17:43:24.200Z,99223.88
2023-02-13T17:45:52.757Z,99225.91
2023-02-13T17:48:21.334Z,99229.22
2023-02-13T17:50:51.801Z,99226.19
2023-02-13T17:53:30.853Z,99224.66
2023-02-13T17:56:00.084Z,99226.69
2023-02-13T17:58:28.472Z,99223.66
2023-02-13T18:00:57.057Z,99224.94
2023-02-13T18:03:25.776Z,99233.88
2023-02-13T18:05:54.072Z,99227.25
2023-02-13T18:08:22.355Z,99217.31
2023-02-13T18:10:50.804Z,99227.00
2023-02-13T18:13:19.156Z,99230.56
2023-02-13T18:15:47.590Z,99225.50
2023-02-13T18:18:16.949Z,99223.94
2023-02-13T18:20:45.758Z,99216.81
2023-02-13T18:23:14.997Z,99228.53
2023-02-13T18:25:43.381Z,99229.81
2023-02-13T18:28:11.884Z,99227.00
2023-02-13T18:30:43.956Z,99226.25
2023-02-13T18:33:12.915Z,99228.28
2023-02-13T18:35:41.266Z,99219.88
2023-02-13T18:38:09.552Z,99223.97
2023-02-13T18:40:38.125Z,99223.19
2023-02-13T18:43:08.516Z,99216.84
2023-02-13T18:45:37.860Z,99210.97
2023-02-13T18:48:08.903Z,99215.81
2023-02-13T18:50:41.635Z,99214.31
2023-02-13T18:53:10.498Z,99210.50
2023-02-13T18:55:39.034Z,99210.78
2023-02-13T18:58:07.554Z,99202.88
2023-02-13T19:00:35.909Z,99209.00
2023-02-13T19:03:04.232Z,99196.50
2023-02-13T19:05:32.529Z,99202.13
2023-02-13T19:08:01.027Z,99201.34
2023-02-13T19:10:29.377Z,99197.53
2023-02-13T19:12:57.693Z,99195.75
2023-02-13T19:15:26.214Z,99189.88
2023-02-13T19:17:58.041Z,99193.22
2023-02-13T19:20:26.380Z,99191.69
2023-02-13T19:22:56.004Z,99181.75
2023-02-13T19:25:24.360Z,99187.34
2023-02-13T19:27:52.697Z,99187.34
2023-02-13T19:30:21.200Z,99186.59
2023-02-13T19:32:49.543Z,99186.59
2023-02-13T19:35:17.900Z,99181.00
2023-02-13T19:37:46.183Z,99178.94
2023-02-13T19:40:15.324Z,99174.63
2023-02-13T19:42:43.729Z,99166.97
2023-02-13T19:45:12.556Z,99171.06
2023-02-13T19:47:40.869Z,99174.91
2023-02-13T19:50:09.846Z,99169.81
2023-02-13T19:52:38.372Z,99173.38
2023-02-13T19:55:06.873Z,99167.53
2023-02-13T19:57:35.165Z,99168.03
2023-02-13T20:00:05.559Z,99168.56
2023-02-13T20:02:34.159Z,99159.91
2023-02-13T20:05:02.496Z,99164.22
2023-02-13T20:07:31.341Z,99164.75
2023-02-13T20:09:59.824Z,99161.69
2023-02-13T20:12:28.167Z,99171.38
2023-02-13T20:14:56.872Z,99168.34
2023-02-13T20:17:25.453Z,99169.34
2023-02-13T20:19:53.809Z,99166.03
2023-02-13T20:22:22.203Z,99167.84
2023-02-13T20:24:50.500Z,99166.81
2023-02-13T20:27:18.785Z,99170.91
2023-02-13T20:29:47.140Z,99168.63
2023-02-13T20:32:15.631Z,99169.38
2023-02-13T20:34:59.020Z,99176.00
2023-02-13T20:37:28.379Z,99176.53
2023-02-13T20:39:56.688Z,99180.34
2023-02-13T20:42:25.221Z,99175.78
2023-02-13T20:44:53.487Z,99177.56
2023-02-13T20:47:21.783Z,99169.66
2023-02-13T20:49:50.136Z,99177.03
2023-02-13T20:52:18.494Z,99179.31
2023-02-13T20:54:48.022Z,99170.16
2023-02-13T20:57:16.682Z,99178.31
2023-02-13T20:59:45.967Z,99190.78
2023-02-13T21:02:14.552Z,99192.59
2023-02-13T21:04:42.937Z,99191.53
2023-02-13T21:07:11.341Z,99190.53
2023-02-13T21:09:39.748Z,99184.94
2023-02-13T21:12:08.181Z,99177.03
2023-02-13T21:14:36.544Z,99179.84
2023-02-13T21:17:04.835Z,99174.00
2023-02-13T21:19:33.246Z,99183.41
2023-02-13T21:22:21.657Z,99188.00
2023-02-13T21:24:52.239Z,99178.06
2023-02-13T21:27:20.610Z,99179.09
2023-02-13T21:29:49.061Z,99182.38
2023-02-13T21:32:17.535Z,99185.69
2023-02-13T21:34:45.883Z,99185.44
2023-02-13T21:37:14.238Z,99181.63
2023-02-13T21:39:42.542Z,99179.59
2023-02-13T21:42:11.389Z,99188.50
2023-02-13T21:44:39.733Z,99188.50
2023-02-13T21:47:08.049Z,99188.25
2023-02-13T21:49:36.819Z,99181.88
2023-02-13T21:52:05.338Z,99191.56
2023-02-13T21:54:33.726Z,99191.31
2023-02-13T21:57:02.138Z,99192.59
2023-02-13T21:59:30.445Z,99195.13
2023-02-13T22:01:59.206Z,99198.44
2023-02-13T22:04:27.655Z,99203.28
2023-02-13T22:06:55.978Z,99196.41
2023-02-13T22:09:24.424Z,99202.75
2023-02-13T22:11:55.771Z,99206.81
2023-02-13T22:14:24.221Z,99205.06
2023-02-13T22:16:53.538Z,99213.97
2023-02-13T22:19:22.331Z,99217.00
2023-02-13T22:21:50.649Z,99211.13
2023-02-13T22:24:19.067Z,99221.31
2023-02-13T22:26:47.478Z,99223.34
2023-02-13T22:29:18.651Z,99223.09
2023-02-13T22:31:47.865Z,99227.16
2023-02-13T22:34:16.533Z,99228.94
2023-02-13T22:36:45.090Z,99230.19
2023-02-13T22:39:13.871Z,99236.31
2023-02-13T22:41:43.266Z,99237.06
2023-02-13T22:44:11.628Z,99247.75
2023-02-13T22:46:40.124Z,99247.75
2023-02-13T22:49:08.532Z,99265.31
2023-02-13T22:51:38.060Z,99263.25
2023-02-13T22:54:07.184Z,99274.47
2023-02-13T22:56:36.018Z,99278.53
2023-02-13T22:59:04.580Z,99283.88
2023-02-13T23:01:32.982Z,99284.38
2023-02-13T23:04:01.428Z,99290.47
2023-02-13T23:06:29.996Z,99293.00
2023-02-13T23:08:58.513Z,99299.88
2023-02-13T23:11:47.853Z,99307.25
2023-02-13T23:14:17.512Z,99312.06
2023-02-13T23:17:04.072Z,99314.88
2023-02-13T23:19:32.959Z,99328.84
2023-02-13T23:22:01.835Z,99324.53
2023-02-13T23:24:31.499Z,99327.59
2023-02-13T23:27:01.031Z,99324.78
2023-02-13T23:29:29.431Z,99330.13
2023-02-13T23:31:57.965Z,99334.19
2023-02-13T23:34:26.814Z,99346.66
2023-02-13T23:36:55.178Z,99350.22
2023-02-13T23:39:25.114Z,99351.47
2023-02-13T23:41:53.420Z,99362.66
2023-02-13T23:44:21.767Z,99359.59
2023-02-13T23:46:50.049Z,99359.59
2023-02-13T23:49:18.462Z,99366.72
2023-02-13T23:51:46.805Z,99370.28
2023-02-13T23:54:24.962Z,99373.84
2023-02-13T23:56:55.528Z,99378.69
2023-02-13T23:59:26.384Z,99385.81
